Airfield :
LOGIN :

Register | Disclaimer

   EN    FR    IT 

 










Legend :    VFR   Marginal VFR   IFR   Intensive IFR   Very Intensive IFR
Visi :
Ceiling :
>= 8 km
>= 3000ft
5 to 8 km
1000 to 3000 ft
1500m to 5 km
500 to 1000 ft
800 to 1500m
200 to 500 ft
< 800m
< 200 ft
Symbols :   Thunderstorms  Fog  Heavy snow  Heavy precipitations  Wind > 20 kt
SIGMETs :     Misc.  Thunderstorms  Icing  Turbulence  Mountain Waves  Volcanic Ashes






- Airport Elevation : 289 ft


LIRG - Guidonia

CURRENT METAR :
  • 211555Z 22010KT 9999 FEW020TCU 22/12 Q1012

EXPIRED METARs :
  • 211455Z 21012KT 180V250 9999 FEW020CB SCT030 22/13 Q1011
  • 211355Z 22011KT 9999 FEW020CB SCT030 23/14 Q1011
  • 211255Z 24008KT 190V280 9999 FEW020CB SCT035 23/13 Q1011 RMK BKN MON NE CIME INC NC VIS MIN 9999 BLU
  • 211155Z 26008KT 9999 FEW020TCU SCT035 23/15 Q1011 RMK BKN MON NE CIME INC VIS MIN 9999 BLU

TAF TAF LIRG
Valid from the 21 at 15:00 until the 22 at 00:00 UTC


211400Z 2115/2124 22010KT 9999 FEW025 SCT035
PROB40
TEMPO 2115/2124 3000 TSRA FEW020CB BKN030
BECMG 2119/2121 14006KT



MET'MAP, your aeronautical weather chart ! - Copyright ORBIFLY December 2007 - Disclaimer

ORBIFLY MET'MAP TEAM :

Programming & Development : Alexandra Zaïnal
Original concept : Baudouin d'Aumeries
Technical & hardware support : Manuel Goepfert
Assistance : Marc-Olivier Méhu




SOURCES & CREDITS :

   NOAA